5NY3 weather

CLOSED Keech Airport
Etna, New York, United States

Public forecast

Using degrees Fahrenheit for public forecast. Weather courtesy of forecast.io.

METAR (pilot weather report)

Closest report is Ithaca Tompkins Regional Airport, 3.2 nm (5.9 km) W. Retrieved 2019/09/15 07:56 UTC (51 minutes ago):

KITH 150756Z AUTO 00000KT 10SM OVC022 11/11 A3020 RMK AO2 SLP226 T01110111

TAF (pilot weather forecast)

Closest forecast is Ithaca Tompkins Regional Airport, 3.2 nm (5.9 km) W. Retrieved 2019/09/15 06:22 UTC (2 hours ago):

TAF KITH 150520Z 1506/1606 VRB03KT P6SM SCT150 FM150800 VRB03KT 3SM BR SCT003 TEMPO 1510/1514 1SM BR BKN003 FM151400 25007KT P6SM SCT035 FM160200 13004KT P6SM BKN035